sensor_id;sensor_type;location;lat;lon;timestamp;P1;durP1;ratioP1;P2;durP2;ratioP2
25715;SDS011;13573;50.936;4.328;2022-08-11T00:01:13;3.33;;;2.70;;
25715;SDS011;13573;50.936;4.328;2022-08-11T00:03:47;11.43;;;2.90;;
25715;SDS011;13573;50.936;4.328;2022-08-11T00:06:23;6.77;;;2.43;;
25715;SDS011;13573;50.936;4.328;2022-08-11T00:08:52;5.47;;;2.50;;
25715;SDS011;13573;50.936;4.328;2022-08-11T00:11:20;3.00;;;2.67;;
25715;SDS011;13573;50.936;4.328;2022-08-11T00:13:49;5.10;;;2.80;;
25715;SDS011;13573;50.936;4.328;2022-08-11T00:16:20;5.50;;;2.87;;
25715;SDS011;13573;50.936;4.328;2022-08-11T00:18:50;4.93;;;2.73;;
25715;SDS011;13573;50.936;4.328;2022-08-11T00:21:19;4.63;;;2.77;;
25715;SDS011;13573;50.936;4.328;2022-08-11T00:23:52;4.30;;;2.53;;
25715;SDS011;13573;50.936;4.328;2022-08-11T00:26:22;5.10;;;2.60;;
25715;SDS011;13573;50.936;4.328;2022-08-11T00:28:49;3.33;;;2.70;;
25715;SDS011;13573;50.936;4.328;2022-08-11T00:33:53;8.30;;;2.90;;
25715;SDS011;13573;50.936;4.328;2022-08-11T00:36:22;6.10;;;2.63;;
25715;SDS011;13573;50.936;4.328;2022-08-11T00:38:54;4.97;;;2.70;;
25715;SDS011;13573;50.936;4.328;2022-08-11T00:41:32;4.93;;;3.10;;
25715;SDS011;13573;50.936;4.328;2022-08-11T00:44:06;5.17;;;3.27;;
25715;SDS011;13573;50.936;4.328;2022-08-11T00:46:41;5.10;;;2.90;;
25715;SDS011;13573;50.936;4.328;2022-08-11T00:49:37;5.37;;;2.83;;
25715;SDS011;13573;50.936;4.328;2022-08-11T00:52:15;5.50;;;2.67;;
25715;SDS011;13573;50.936;4.328;2022-08-11T00:54:58;6.30;;;3.23;;
25715;SDS011;13573;50.936;4.328;2022-08-11T01:00:23;5.33;;;3.00;;
25715;SDS011;13573;50.936;4.328;2022-08-11T01:03:12;6.97;;;3.13;;
25715;SDS011;13573;50.936;4.328;2022-08-11T01:05:44;9.40;;;2.87;;
25715;SDS011;13573;50.936;4.328;2022-08-11T01:11:28;7.07;;;3.10;;
25715;SDS011;13573;50.936;4.328;2022-08-11T01:14:16;3.70;;;2.53;;
25715;SDS011;13573;50.936;4.328;2022-08-11T01:16:51;6.47;;;2.93;;
25715;SDS011;13573;50.936;4.328;2022-08-11T01:22:23;5.87;;;2.90;;
25715;SDS011;13573;50.936;4.328;2022-08-11T01:25:15;4.40;;;2.60;;
25715;SDS011;13573;50.936;4.328;2022-08-11T01:30:17;4.43;;;3.00;;
25715;SDS011;13573;50.936;4.328;2022-08-11T01:35:26;5.17;;;3.30;;
25715;SDS011;13573;50.936;4.328;2022-08-11T01:38:13;6.87;;;3.13;;
25715;SDS011;13573;50.936;4.328;2022-08-11T01:40:54;5.57;;;2.90;;
25715;SDS011;13573;50.936;4.328;2022-08-11T01:44:12;5.00;;;3.07;;
25715;SDS011;13573;50.936;4.328;2022-08-11T01:46:38;4.37;;;2.90;;
25715;SDS011;13573;50.936;4.328;2022-08-11T01:49:22;10.00;;;3.27;;
25715;SDS011;13573;50.936;4.328;2022-08-11T01:52:00;5.37;;;3.20;;
25715;SDS011;13573;50.936;4.328;2022-08-11T01:54:37;4.70;;;3.03;;
25715;SDS011;13573;50.936;4.328;2022-08-11T02:00:05;8.63;;;3.40;;
25715;SDS011;13573;50.936;4.328;2022-08-11T02:02:38;6.63;;;3.30;;
25715;SDS011;13573;50.936;4.328;2022-08-11T02:07:57;9.30;;;2.90;;
25715;SDS011;13573;50.936;4.328;2022-08-11T02:10:30;5.00;;;2.87;;
25715;SDS011;13573;50.936;4.328;2022-08-11T02:13:09;4.50;;;3.17;;
25715;SDS011;13573;50.936;4.328;2022-08-11T02:15:44;6.07;;;3.43;;
25715;SDS011;13573;50.936;4.328;2022-08-11T02:18:15;6.10;;;3.00;;
25715;SDS011;13573;50.936;4.328;2022-08-11T02:21:16;4.17;;;2.90;;
25715;SDS011;13573;50.936;4.328;2022-08-11T02:23:52;7.17;;;3.23;;
25715;SDS011;13573;50.936;4.328;2022-08-11T02:26:21;5.83;;;3.37;;
25715;SDS011;13573;50.936;4.328;2022-08-11T02:28:53;3.97;;;3.17;;
25715;SDS011;13573;50.936;4.328;2022-08-11T02:31:26;5.77;;;3.23;;
25715;SDS011;13573;50.936;4.328;2022-08-11T02:34:04;7.57;;;3.60;;
25715;SDS011;13573;50.936;4.328;2022-08-11T02:36:36;5.33;;;3.33;;
25715;SDS011;13573;50.936;4.328;2022-08-11T02:39:07;6.20;;;3.27;;
25715;SDS011;13573;50.936;4.328;2022-08-11T02:41:45;7.43;;;3.53;;
25715;SDS011;13573;50.936;4.328;2022-08-11T02:44:45;7.40;;;3.40;;
25715;SDS011;13573;50.936;4.328;2022-08-11T02:47:14;7.47;;;3.73;;
25715;SDS011;13573;50.936;4.328;2022-08-11T02:50:00;7.80;;;3.57;;
25715;SDS011;13573;50.936;4.328;2022-08-11T02:52:36;14.23;;;3.73;;
25715;SDS011;13573;50.936;4.328;2022-08-11T02:56:18;6.83;;;3.67;;
25715;SDS011;13573;50.936;4.328;2022-08-11T02:58:01;7.23;;;3.37;;
25715;SDS011;13573;50.936;4.328;2022-08-11T03:00:29;8.17;;;3.90;;
25715;SDS011;13573;50.936;4.328;2022-08-11T03:03:06;8.80;;;3.97;;
25715;SDS011;13573;50.936;4.328;2022-08-11T03:05:39;9.47;;;3.90;;
25715;SDS011;13573;50.936;4.328;2022-08-11T03:09:18;7.40;;;4.07;;
25715;SDS011;13573;50.936;4.328;2022-08-11T03:11:18;10.33;;;4.10;;
25715;SDS011;13573;50.936;4.328;2022-08-11T03:13:58;6.03;;;4.00;;
25715;SDS011;13573;50.936;4.328;2022-08-11T03:16:45;7.43;;;3.87;;
25715;SDS011;13573;50.936;4.328;2022-08-11T03:19:21;8.47;;;3.57;;
25715;SDS011;13573;50.936;4.328;2022-08-11T03:21:58;9.00;;;4.57;;
25715;SDS011;13573;50.936;4.328;2022-08-11T03:24:30;8.33;;;4.17;;
25715;SDS011;13573;50.936;4.328;2022-08-11T03:27:09;8.77;;;4.07;;
25715;SDS011;13573;50.936;4.328;2022-08-11T03:30:12;5.93;;;3.97;;
25715;SDS011;13573;50.936;4.328;2022-08-11T03:32:50;8.60;;;4.27;;
25715;SDS011;13573;50.936;4.328;2022-08-11T03:35:44;6.33;;;4.07;;
25715;SDS011;13573;50.936;4.328;2022-08-11T03:38:27;8.30;;;4.40;;
25715;SDS011;13573;50.936;4.328;2022-08-11T03:43:45;6.27;;;4.20;;
25715;SDS011;13573;50.936;4.328;2022-08-11T03:46:31;5.73;;;4.13;;
25715;SDS011;13573;50.936;4.328;2022-08-11T03:52:07;8.03;;;3.80;;
25715;SDS011;13573;50.936;4.328;2022-08-11T03:57:25;6.67;;;4.00;;
25715;SDS011;13573;50.936;4.328;2022-08-11T04:00:02;5.70;;;4.30;;
25715;SDS011;13573;50.936;4.328;2022-08-11T04:05:19;9.33;;;4.83;;
25715;SDS011;13573;50.936;4.328;2022-08-11T04:19:08;8.00;;;4.50;;
25715;SDS011;13573;50.936;4.328;2022-08-11T04:22:00;6.83;;;4.43;;
25715;SDS011;13573;50.936;4.328;2022-08-11T04:27:11;8.20;;;4.53;;
25715;SDS011;13573;50.936;4.328;2022-08-11T04:29:45;6.37;;;4.50;;
25715;SDS011;13573;50.936;4.328;2022-08-11T04:37:48;7.77;;;4.40;;
25715;SDS011;13573;50.936;4.328;2022-08-11T04:46:40;9.33;;;5.30;;
25715;SDS011;13573;50.936;4.328;2022-08-11T04:52:08;10.27;;;5.23;;
25715;SDS011;13573;50.936;4.328;2022-08-11T04:54:52;9.57;;;5.67;;
25715;SDS011;13573;50.936;4.328;2022-08-11T04:57:34;7.73;;;4.70;;
25715;SDS011;13573;50.936;4.328;2022-08-11T05:00:15;10.43;;;4.80;;
25715;SDS011;13573;50.936;4.328;2022-08-11T05:03:32;10.90;;;5.70;;
25715;SDS011;13573;50.936;4.328;2022-08-11T05:06:09;7.67;;;5.00;;
25715;SDS011;13573;50.936;4.328;2022-08-11T05:08:49;12.60;;;5.80;;
25715;SDS011;13573;50.936;4.328;2022-08-11T05:11:26;9.47;;;5.70;;
25715;SDS011;13573;50.936;4.328;2022-08-11T05:14:17;8.37;;;5.40;;
25715;SDS011;13573;50.936;4.328;2022-08-11T05:16:59;9.67;;;5.40;;
25715;SDS011;13573;50.936;4.328;2022-08-11T05:19:37;13.83;;;5.10;;
25715;SDS011;13573;50.936;4.328;2022-08-11T05:22:10;7.10;;;4.97;;
25715;SDS011;13573;50.936;4.328;2022-08-11T05:24:44;10.83;;;5.40;;
25715;SDS011;13573;50.936;4.328;2022-08-11T05:27:20;10.57;;;4.70;;
25715;SDS011;13573;50.936;4.328;2022-08-11T05:30:04;10.33;;;5.50;;
25715;SDS011;13573;50.936;4.328;2022-08-11T05:32:39;10.03;;;5.20;;
25715;SDS011;13573;50.936;4.328;2022-08-11T05:35:13;13.43;;;4.63;;
25715;SDS011;13573;50.936;4.328;2022-08-11T05:37:43;8.33;;;5.10;;
25715;SDS011;13573;50.936;4.328;2022-08-11T05:40:17;13.73;;;5.70;;
25715;SDS011;13573;50.936;4.328;2022-08-11T05:42:50;6.20;;;4.70;;
25715;SDS011;13573;50.936;4.328;2022-08-11T05:45:26;7.60;;;5.17;;
25715;SDS011;13573;50.936;4.328;2022-08-11T05:47:59;12.23;;;5.17;;
25715;SDS011;13573;50.936;4.328;2022-08-11T05:50:32;11.20;;;5.47;;
25715;SDS011;13573;50.936;4.328;2022-08-11T05:53:08;12.43;;;5.80;;
25715;SDS011;13573;50.936;4.328;2022-08-11T05:55:41;9.67;;;5.33;;
25715;SDS011;13573;50.936;4.328;2022-08-11T05:58:14;8.60;;;4.70;;
25715;SDS011;13573;50.936;4.328;2022-08-11T06:00:43;9.67;;;5.60;;
25715;SDS011;13573;50.936;4.328;2022-08-11T06:03:19;16.50;;;5.50;;
25715;SDS011;13573;50.936;4.328;2022-08-11T06:05:48;10.77;;;5.80;;
25715;SDS011;13573;50.936;4.328;2022-08-11T06:08:15;14.77;;;5.73;;
25715;SDS011;13573;50.936;4.328;2022-08-11T06:10:43;10.33;;;5.57;;
25715;SDS011;13573;50.936;4.328;2022-08-11T06:13:13;18.83;;;4.90;;
25715;SDS011;13573;50.936;4.328;2022-08-11T06:15:44;20.33;;;5.43;;
25715;SDS011;13573;50.936;4.328;2022-08-11T06:18:12;9.70;;;5.27;;
25715;SDS011;13573;50.936;4.328;2022-08-11T06:23:13;27.40;;;6.63;;
25715;SDS011;13573;50.936;4.328;2022-08-11T06:25:43;11.23;;;5.40;;
25715;SDS011;13573;50.936;4.328;2022-08-11T06:28:11;14.43;;;5.83;;
25715;SDS011;13573;50.936;4.328;2022-08-11T06:30:43;12.50;;;5.13;;
25715;SDS011;13573;50.936;4.328;2022-08-11T06:33:15;19.47;;;6.60;;
25715;SDS011;13573;50.936;4.328;2022-08-11T06:35:45;20.90;;;5.10;;
25715;SDS011;13573;50.936;4.328;2022-08-11T06:40:53;32.47;;;6.97;;
25715;SDS011;13573;50.936;4.328;2022-08-11T06:43:27;17.50;;;5.75;;
25715;SDS011;13573;50.936;4.328;2022-08-11T06:45:58;18.50;;;6.03;;
25715;SDS011;13573;50.936;4.328;2022-08-11T06:48:29;18.55;;;5.75;;
25715;SDS011;13573;50.936;4.328;2022-08-11T06:50:59;19.70;;;6.47;;
25715;SDS011;13573;50.936;4.328;2022-08-11T06:53:34;16.10;;;6.20;;
25715;SDS011;13573;50.936;4.328;2022-08-11T06:56:03;18.25;;;5.12;;
25715;SDS011;13573;50.936;4.328;2022-08-11T06:58:39;12.58;;;5.75;;
25715;SDS011;13573;50.936;4.328;2022-08-11T07:01:13;20.23;;;5.62;;
25715;SDS011;13573;50.936;4.328;2022-08-11T07:03:43;10.88;;;5.22;;
25715;SDS011;13573;50.936;4.328;2022-08-11T07:06:17;10.55;;;4.22;;
25715;SDS011;13573;50.936;4.328;2022-08-11T07:11:59;29.20;;;6.80;;
25715;SDS011;13573;50.936;4.328;2022-08-11T07:14:34;16.87;;;5.30;;
25715;SDS011;13573;50.936;4.328;2022-08-11T07:17:10;14.20;;;5.22;;
25715;SDS011;13573;50.936;4.328;2022-08-11T07:19:39;12.93;;;4.80;;
25715;SDS011;13573;50.936;4.328;2022-08-11T07:22:14;13.48;;;5.30;;
25715;SDS011;13573;50.936;4.328;2022-08-11T07:24:54;14.98;;;5.40;;
25715;SDS011;13573;50.936;4.328;2022-08-11T07:27:33;15.75;;;5.12;;
25715;SDS011;13573;50.936;4.328;2022-08-11T07:30:07;15.45;;;5.08;;
25715;SDS011;13573;50.936;4.328;2022-08-11T07:32:37;18.42;;;5.30;;
25715;SDS011;13573;50.936;4.328;2022-08-11T07:35:17;13.22;;;5.03;;
25715;SDS011;13573;50.936;4.328;2022-08-11T07:37:51;11.73;;;5.10;;
25715;SDS011;13573;50.936;4.328;2022-08-11T07:40:20;11.38;;;4.42;;
25715;SDS011;13573;50.936;4.328;2022-08-11T07:42:49;9.80;;;4.20;;
25715;SDS011;13573;50.936;4.328;2022-08-11T07:45:18;17.82;;;4.67;;
25715;SDS011;13573;50.936;4.328;2022-08-11T07:47:51;20.80;;;4.60;;
25715;SDS011;13573;50.936;4.328;2022-08-11T07:50:25;10.10;;;4.62;;
25715;SDS011;13573;50.936;4.328;2022-08-11T07:52:59;9.53;;;4.42;;
25715;SDS011;13573;50.936;4.328;2022-08-11T07:55:26;15.40;;;5.05;;
25715;SDS011;13573;50.936;4.328;2022-08-11T07:57:55;7.70;;;4.28;;
25715;SDS011;13573;50.936;4.328;2022-08-11T08:00:34;12.05;;;4.62;;
25715;SDS011;13573;50.936;4.328;2022-08-11T08:03:08;16.42;;;5.00;;
25715;SDS011;13573;50.936;4.328;2022-08-11T08:05:40;11.68;;;4.37;;
25715;SDS011;13573;50.936;4.328;2022-08-11T08:08:13;14.68;;;4.25;;
25715;SDS011;13573;50.936;4.328;2022-08-11T08:10:46;12.70;;;4.22;;
25715;SDS011;13573;50.936;4.328;2022-08-11T08:13:19;12.58;;;3.83;;
25715;SDS011;13573;50.936;4.328;2022-08-11T08:15:52;10.68;;;4.37;;
25715;SDS011;13573;50.936;4.328;2022-08-11T08:18:25;13.72;;;5.08;;
25715;SDS011;13573;50.936;4.328;2022-08-11T08:20:53;10.20;;;3.80;;
25715;SDS011;13573;50.936;4.328;2022-08-11T08:23:25;13.68;;;4.12;;
25715;SDS011;13573;50.936;4.328;2022-08-11T08:25:58;14.10;;;4.20;;
25715;SDS011;13573;50.936;4.328;2022-08-11T08:28:27;7.42;;;3.60;;
25715;SDS011;13573;50.936;4.328;2022-08-11T08:30:54;11.25;;;4.20;;
25715;SDS011;13573;50.936;4.328;2022-08-11T08:33:25;10.50;;;4.00;;
25715;SDS011;13573;50.936;4.328;2022-08-11T08:35:53;11.43;;;3.83;;
25715;SDS011;13573;50.936;4.328;2022-08-11T08:38:40;16.32;;;4.22;;
25715;SDS011;13573;50.936;4.328;2022-08-11T08:41:08;15.03;;;3.95;;
25715;SDS011;13573;50.936;4.328;2022-08-11T08:43:36;9.33;;;4.05;;
25715;SDS011;13573;50.936;4.328;2022-08-11T08:46:06;16.40;;;4.22;;
25715;SDS011;13573;50.936;4.328;2022-08-11T08:48:35;12.20;;;3.15;;
25715;SDS011;13573;50.936;4.328;2022-08-11T08:51:04;15.32;;;4.30;;
25715;SDS011;13573;50.936;4.328;2022-08-11T08:53:39;13.40;;;3.90;;
25715;SDS011;13573;50.936;4.328;2022-08-11T08:56:09;12.30;;;3.83;;
25715;SDS011;13573;50.936;4.328;2022-08-11T08:58:37;17.25;;;3.90;;
25715;SDS011;13573;50.936;4.328;2022-08-11T09:01:06;18.30;;;4.30;;
25715;SDS011;13573;50.936;4.328;2022-08-11T09:03:36;9.80;;;3.35;;
25715;SDS011;13573;50.936;4.328;2022-08-11T09:06:04;5.67;;;3.27;;
25715;SDS011;13573;50.936;4.328;2022-08-11T09:08:31;7.75;;;2.95;;
25715;SDS011;13573;50.936;4.328;2022-08-11T09:11:00;9.30;;;3.12;;
25715;SDS011;13573;50.936;4.328;2022-08-11T09:13:34;9.88;;;2.98;;
25715;SDS011;13573;50.936;4.328;2022-08-11T09:16:02;7.28;;;3.05;;
25715;SDS011;13573;50.936;4.328;2022-08-11T09:18:31;9.35;;;3.87;;
25715;SDS011;13573;50.936;4.328;2022-08-11T09:20:58;8.05;;;3.47;;
25715;SDS011;13573;50.936;4.328;2022-08-11T09:23:27;8.03;;;3.75;;
25715;SDS011;13573;50.936;4.328;2022-08-11T09:26:01;4.65;;;3.22;;
25715;SDS011;13573;50.936;4.328;2022-08-11T09:28:34;8.88;;;3.58;;
25715;SDS011;13573;50.936;4.328;2022-08-11T09:31:01;7.78;;;3.40;;
25715;SDS011;13573;50.936;4.328;2022-08-11T09:33:30;8.40;;;3.90;;
25715;SDS011;13573;50.936;4.328;2022-08-11T09:35:58;6.83;;;3.40;;
25715;SDS011;13573;50.936;4.328;2022-08-11T09:38:28;4.83;;;2.83;;
25715;SDS011;13573;50.936;4.328;2022-08-11T09:41:02;5.83;;;3.25;;
25715;SDS011;13573;50.936;4.328;2022-08-11T09:43:30;6.33;;;3.25;;
25715;SDS011;13573;50.936;4.328;2022-08-11T09:46:06;6.65;;;2.87;;
25715;SDS011;13573;50.936;4.328;2022-08-11T09:48:37;10.03;;;3.65;;
25715;SDS011;13573;50.936;4.328;2022-08-11T09:51:06;7.47;;;3.05;;
25715;SDS011;13573;50.936;4.328;2022-08-11T09:53:35;11.33;;;3.35;;
25715;SDS011;13573;50.936;4.328;2022-08-11T09:56:08;4.72;;;3.10;;
25715;SDS011;13573;50.936;4.328;2022-08-11T09:58:45;6.67;;;3.50;;
25715;SDS011;13573;50.936;4.328;2022-08-11T10:01:12;10.23;;;3.45;;
25715;SDS011;13573;50.936;4.328;2022-08-11T10:03:43;7.42;;;3.27;;
25715;SDS011;13573;50.936;4.328;2022-08-11T10:06:11;4.78;;;3.17;;
25715;SDS011;13573;50.936;4.328;2022-08-11T10:08:44;7.22;;;3.40;;
25715;SDS011;13573;50.936;4.328;2022-08-11T10:11:13;8.30;;;3.00;;
25715;SDS011;13573;50.936;4.328;2022-08-11T10:13:44;6.42;;;3.15;;
25715;SDS011;13573;50.936;4.328;2022-08-11T10:16:17;7.53;;;3.40;;
25715;SDS011;13573;50.936;4.328;2022-08-11T10:18:46;8.43;;;3.35;;
25715;SDS011;13573;50.936;4.328;2022-08-11T10:21:22;6.75;;;2.98;;
25715;SDS011;13573;50.936;4.328;2022-08-11T10:23:53;6.67;;;4.15;;
25715;SDS011;13573;50.936;4.328;2022-08-11T10:26:27;3.87;;;2.92;;
25715;SDS011;13573;50.936;4.328;2022-08-11T10:29:01;6.55;;;3.10;;
25715;SDS011;13573;50.936;4.328;2022-08-11T10:31:31;14.68;;;3.72;;
25715;SDS011;13573;50.936;4.328;2022-08-11T10:34:04;8.63;;;3.30;;
25715;SDS011;13573;50.936;4.328;2022-08-11T10:36:34;14.33;;;3.30;;
25715;SDS011;13573;50.936;4.328;2022-08-11T10:39:09;9.10;;;3.22;;
25715;SDS011;13573;50.936;4.328;2022-08-11T10:41:40;5.08;;;3.87;;
25715;SDS011;13573;50.936;4.328;2022-08-11T10:44:13;7.12;;;3.30;;
25715;SDS011;13573;50.936;4.328;2022-08-11T10:46:40;4.90;;;3.00;;
25715;SDS011;13573;50.936;4.328;2022-08-11T10:49:13;6.80;;;3.10;;
25715;SDS011;13573;50.936;4.328;2022-08-11T10:51:40;6.97;;;3.35;;
25715;SDS011;13573;50.936;4.328;2022-08-11T10:54:13;10.55;;;2.90;;
25715;SDS011;13573;50.936;4.328;2022-08-11T10:56:46;6.12;;;3.08;;
25715;SDS011;13573;50.936;4.328;2022-08-11T10:59:19;3.37;;;3.08;;
25715;SDS011;13573;50.936;4.328;2022-08-11T11:01:47;7.00;;;2.83;;
25715;SDS011;13573;50.936;4.328;2022-08-11T11:04:17;7.08;;;3.22;;
25715;SDS011;13573;50.936;4.328;2022-08-11T11:06:55;4.65;;;2.50;;
25715;SDS011;13573;50.936;4.328;2022-08-11T11:09:24;6.72;;;3.25;;
25715;SDS011;13573;50.936;4.328;2022-08-11T11:11:56;5.37;;;2.90;;
25715;SDS011;13573;50.936;4.328;2022-08-11T11:14:33;4.42;;;2.77;;
25715;SDS011;13573;50.936;4.328;2022-08-11T11:17:07;7.35;;;2.72;;
25715;SDS011;13573;50.936;4.328;2022-08-11T11:19:56;5.92;;;2.85;;
25715;SDS011;13573;50.936;4.328;2022-08-11T11:22:26;4.45;;;2.75;;
25715;SDS011;13573;50.936;4.328;2022-08-11T11:25:03;6.80;;;3.33;;
25715;SDS011;13573;50.936;4.328;2022-08-11T11:27:33;6.67;;;3.27;;
25715;SDS011;13573;50.936;4.328;2022-08-11T11:30:07;4.12;;;3.00;;
25715;SDS011;13573;50.936;4.328;2022-08-11T11:32:43;8.13;;;3.50;;
25715;SDS011;13573;50.936;4.328;2022-08-11T11:35:31;7.70;;;3.77;;
25715;SDS011;13573;50.936;4.328;2022-08-11T11:38:06;3.77;;;2.55;;
25715;SDS011;13573;50.936;4.328;2022-08-11T11:40:34;7.28;;;3.40;;
25715;SDS011;13573;50.936;4.328;2022-08-11T11:43:02;4.90;;;2.77;;
25715;SDS011;13573;50.936;4.328;2022-08-11T11:45:30;5.55;;;3.25;;
25715;SDS011;13573;50.936;4.328;2022-08-11T11:47:58;6.47;;;3.52;;
25715;SDS011;13573;50.936;4.328;2022-08-11T11:50:27;7.72;;;3.10;;
25715;SDS011;13573;50.936;4.328;2022-08-11T11:52:55;5.67;;;3.10;;
25715;SDS011;13573;50.936;4.328;2022-08-11T11:55:24;3.02;;;2.70;;
25715;SDS011;13573;50.936;4.328;2022-08-11T11:57:52;9.93;;;2.87;;
25715;SDS011;13573;50.936;4.328;2022-08-11T12:00:25;7.67;;;3.15;;
25715;SDS011;13573;50.936;4.328;2022-08-11T12:03:01;3.75;;;2.62;;
25715;SDS011;13573;50.936;4.328;2022-08-11T12:05:30;7.50;;;2.92;;
25715;SDS011;13573;50.936;4.328;2022-08-11T12:07:59;8.08;;;3.20;;
25715;SDS011;13573;50.936;4.328;2022-08-11T12:10:33;9.05;;;3.30;;
25715;SDS011;13573;50.936;4.328;2022-08-11T12:13:01;6.25;;;3.22;;
25715;SDS011;13573;50.936;4.328;2022-08-11T12:15:34;5.15;;;2.90;;
25715;SDS011;13573;50.936;4.328;2022-08-11T12:18:02;5.50;;;2.92;;
25715;SDS011;13573;50.936;4.328;2022-08-11T12:20:29;10.20;;;2.80;;
25715;SDS011;13573;50.936;4.328;2022-08-11T12:22:57;4.45;;;3.02;;
25715;SDS011;13573;50.936;4.328;2022-08-11T12:25:30;5.78;;;2.70;;
25715;SDS011;13573;50.936;4.328;2022-08-11T12:28:03;4.45;;;2.55;;
25715;SDS011;13573;50.936;4.328;2022-08-11T12:30:30;6.30;;;2.75;;
25715;SDS011;13573;50.936;4.328;2022-08-11T12:32:57;3.45;;;2.83;;
25715;SDS011;13573;50.936;4.328;2022-08-11T12:35:23;4.33;;;3.17;;
25715;SDS011;13573;50.936;4.328;2022-08-11T12:37:51;5.75;;;3.00;;
25715;SDS011;13573;50.936;4.328;2022-08-11T12:40:24;5.70;;;2.85;;
25715;SDS011;13573;50.936;4.328;2022-08-11T12:42:58;5.12;;;2.70;;
25715;SDS011;13573;50.936;4.328;2022-08-11T12:45:34;3.77;;;2.60;;
25715;SDS011;13573;50.936;4.328;2022-08-11T12:48:07;4.42;;;2.52;;
25715;SDS011;13573;50.936;4.328;2022-08-11T12:50:41;4.65;;;2.45;;
25715;SDS011;13573;50.936;4.328;2022-08-11T12:53:14;6.37;;;2.62;;
25715;SDS011;13573;50.936;4.328;2022-08-11T12:55:41;7.53;;;2.67;;
25715;SDS011;13573;50.936;4.328;2022-08-11T12:58:14;7.25;;;2.87;;
25715;SDS011;13573;50.936;4.328;2022-08-11T13:00:43;5.92;;;2.55;;
25715;SDS011;13573;50.936;4.328;2022-08-11T13:03:18;2.85;;;2.40;;
25715;SDS011;13573;50.936;4.328;2022-08-11T13:05:54;6.75;;;2.80;;
25715;SDS011;13573;50.936;4.328;2022-08-11T13:08:23;7.25;;;2.25;;
25715;SDS011;13573;50.936;4.328;2022-08-11T13:10:52;2.98;;;2.22;;
25715;SDS011;13573;50.936;4.328;2022-08-11T13:13:44;4.33;;;2.58;;
25715;SDS011;13573;50.936;4.328;2022-08-11T13:16:12;3.58;;;2.25;;
25715;SDS011;13573;50.936;4.328;2022-08-11T13:18:40;6.83;;;2.85;;
25715;SDS011;13573;50.936;4.328;2022-08-11T13:21:08;3.40;;;2.72;;
25715;SDS011;13573;50.936;4.328;2022-08-11T13:23:37;8.05;;;2.60;;
25715;SDS011;13573;50.936;4.328;2022-08-11T13:26:05;4.30;;;2.20;;
25715;SDS011;13573;50.936;4.328;2022-08-11T13:28:34;3.08;;;2.42;;
25715;SDS011;13573;50.936;4.328;2022-08-11T13:31:02;6.80;;;2.77;;
25715;SDS011;13573;50.936;4.328;2022-08-11T13:33:39;3.55;;;2.58;;
25715;SDS011;13573;50.936;4.328;2022-08-11T13:36:08;3.80;;;2.80;;
25715;SDS011;13573;50.936;4.328;2022-08-11T13:38:36;7.35;;;2.77;;
25715;SDS011;13573;50.936;4.328;2022-08-11T13:41:06;3.10;;;2.50;;
25715;SDS011;13573;50.936;4.328;2022-08-11T13:43:35;4.08;;;2.42;;
25715;SDS011;13573;50.936;4.328;2022-08-11T13:46:03;3.98;;;2.77;;
25715;SDS011;13573;50.936;4.328;2022-08-11T13:48:35;4.75;;;2.40;;
25715;SDS011;13573;50.936;4.328;2022-08-11T13:51:03;3.60;;;2.17;;
25715;SDS011;13573;50.936;4.328;2022-08-11T13:53:36;5.35;;;2.40;;
25715;SDS011;13573;50.936;4.328;2022-08-11T13:56:04;3.60;;;2.25;;
25715;SDS011;13573;50.936;4.328;2022-08-11T13:58:31;14.68;;;2.30;;
25715;SDS011;13573;50.936;4.328;2022-08-11T14:00:58;5.87;;;2.52;;
25715;SDS011;13573;50.936;4.328;2022-08-11T14:03:26;4.97;;;2.55;;
25715;SDS011;13573;50.936;4.328;2022-08-11T14:05:54;5.97;;;3.12;;
25715;SDS011;13573;50.936;4.328;2022-08-11T14:08:25;7.78;;;2.25;;
25715;SDS011;13573;50.936;4.328;2022-08-11T14:10:58;6.17;;;2.60;;
25715;SDS011;13573;50.936;4.328;2022-08-11T14:13:32;5.33;;;2.77;;
25715;SDS011;13573;50.936;4.328;2022-08-11T14:16:05;4.25;;;2.92;;
25715;SDS011;13573;50.936;4.328;2022-08-11T14:18:33;6.22;;;2.40;;
25715;SDS011;13573;50.936;4.328;2022-08-11T14:21:02;4.72;;;2.50;;
25715;SDS011;13573;50.936;4.328;2022-08-11T14:23:38;4.42;;;2.75;;
25715;SDS011;13573;50.936;4.328;2022-08-11T14:26:08;6.42;;;2.45;;
25715;SDS011;13573;50.936;4.328;2022-08-11T14:28:41;3.35;;;2.58;;
25715;SDS011;13573;50.936;4.328;2022-08-11T14:31:08;5.85;;;2.95;;
25715;SDS011;13573;50.936;4.328;2022-08-11T14:33:36;10.15;;;2.70;;
25715;SDS011;13573;50.936;4.328;2022-08-11T14:36:03;5.30;;;2.70;;
25715;SDS011;13573;50.936;4.328;2022-08-11T14:38:32;4.42;;;2.55;;
25715;SDS011;13573;50.936;4.328;2022-08-11T14:41:00;4.00;;;2.98;;
25715;SDS011;13573;50.936;4.328;2022-08-11T14:43:33;5.10;;;2.80;;
25715;SDS011;13573;50.936;4.328;2022-08-11T14:46:06;6.87;;;2.70;;
25715;SDS011;13573;50.936;4.328;2022-08-11T14:48:39;5.37;;;2.90;;
25715;SDS011;13573;50.936;4.328;2022-08-11T14:51:06;6.92;;;2.80;;
25715;SDS011;13573;50.936;4.328;2022-08-11T14:53:33;4.90;;;3.10;;
25715;SDS011;13573;50.936;4.328;2022-08-11T14:56:00;5.62;;;2.65;;
25715;SDS011;13573;50.936;4.328;2022-08-11T14:58:32;5.10;;;3.00;;
25715;SDS011;13573;50.936;4.328;2022-08-11T15:01:00;3.35;;;2.98;;
25715;SDS011;13573;50.936;4.328;2022-08-11T15:03:30;3.15;;;2.80;;
25715;SDS011;13573;50.936;4.328;2022-08-11T15:05:58;4.00;;;2.87;;
25715;SDS011;13573;50.936;4.328;2022-08-11T15:08:29;7.42;;;3.37;;
25715;SDS011;13573;50.936;4.328;2022-08-11T15:11:02;9.05;;;3.27;;
25715;SDS011;13573;50.936;4.328;2022-08-11T15:13:30;7.40;;;3.58;;
25715;SDS011;13573;50.936;4.328;2022-08-11T15:15:57;9.03;;;3.00;;
25715;SDS011;13573;50.936;4.328;2022-08-11T15:18:29;7.85;;;3.20;;
25715;SDS011;13573;50.936;4.328;2022-08-11T15:20:57;5.12;;;2.75;;
25715;SDS011;13573;50.936;4.328;2022-08-11T15:23:29;4.05;;;3.12;;
25715;SDS011;13573;50.936;4.328;2022-08-11T15:26:05;4.80;;;3.08;;
25715;SDS011;13573;50.936;4.328;2022-08-11T15:28:36;3.98;;;3.33;;
25715;SDS011;13573;50.936;4.328;2022-08-11T15:31:12;8.15;;;3.20;;
25715;SDS011;13573;50.936;4.328;2022-08-11T15:33:46;4.35;;;3.30;;
25715;SDS011;13573;50.936;4.328;2022-08-11T15:36:22;6.10;;;3.30;;
25715;SDS011;13573;50.936;4.328;2022-08-11T15:38:59;9.28;;;3.05;;
25715;SDS011;13573;50.936;4.328;2022-08-11T15:41:30;4.67;;;2.90;;
25715;SDS011;13573;50.936;4.328;2022-08-11T15:44:05;8.58;;;3.92;;
25715;SDS011;13573;50.936;4.328;2022-08-11T15:46:44;5.35;;;3.30;;
25715;SDS011;13573;50.936;4.328;2022-08-11T15:49:13;4.58;;;3.05;;
25715;SDS011;13573;50.936;4.328;2022-08-11T15:51:45;8.63;;;3.27;;
25715;SDS011;13573;50.936;4.328;2022-08-11T15:54:15;7.05;;;3.33;;
25715;SDS011;13573;50.936;4.328;2022-08-11T15:56:43;8.73;;;3.55;;
25715;SDS011;13573;50.936;4.328;2022-08-11T15:59:14;4.55;;;3.22;;
25715;SDS011;13573;50.936;4.328;2022-08-11T16:01:49;13.32;;;4.15;;
25715;SDS011;13573;50.936;4.328;2022-08-11T16:04:25;5.87;;;3.20;;
25715;SDS011;13573;50.936;4.328;2022-08-11T16:06:59;5.17;;;3.30;;
25715;SDS011;13573;50.936;4.328;2022-08-11T16:09:32;8.50;;;3.47;;
25715;SDS011;13573;50.936;4.328;2022-08-11T16:12:04;6.50;;;3.00;;
25715;SDS011;13573;50.936;4.328;2022-08-11T16:14:36;7.10;;;3.33;;
25715;SDS011;13573;50.936;4.328;2022-08-11T16:17:11;8.68;;;3.60;;
25715;SDS011;13573;50.936;4.328;2022-08-11T16:19:39;7.30;;;3.52;;
25715;SDS011;13573;50.936;4.328;2022-08-11T16:22:09;5.58;;;3.45;;
25715;SDS011;13573;50.936;4.328;2022-08-11T16:24:40;7.08;;;3.10;;
25715;SDS011;13573;50.936;4.328;2022-08-11T16:27:09;6.15;;;3.20;;
25715;SDS011;13573;50.936;4.328;2022-08-11T16:29:39;5.12;;;2.90;;
25715;SDS011;13573;50.936;4.328;2022-08-11T16:32:10;9.58;;;3.80;;